F34 weather

Firebaugh Airport
Firebaugh, California, United States

Public forecast

Using degrees Fahrenheit for public forecast. Weather courtesy of forecast.io.

Closest aviation weather report (METAR) to Firebaugh Airport

Closest report is Madera Municipal Airport, 18.6 nm (34.4 km) ENE. Retrieved 2019/12/10 20:53 UTC (27 minutes ago):

KMAE 102053Z AUTO VRB05KT 10SM SCT018 14/09 A3024 RMK AO2 SLP241 T01390089 58025

Closest aviation forecast (TAF) to Firebaugh Airport

Closest forecast is Merced Regional Macready Field, 25.6 nm (47.4 km) N. Retrieved 2019/12/10 18:22 UTC (3 hours ago):

TAF KMCE 101720Z 1018/1118 00000KT 1/4SM FG VV002 FM101900 VRB03KT 2SM BR OVC003 TEMPO 1019/1021 3SM BR FM102100 VRB03KT 4SM HZ SCT005 BKN250 FM110600 VRB03KT 4SM BR BKN010